Time;durP1;ratioP1;P1;durP2;ratioP2;P2;SDS_P1;SDS_P2;PMS_P1;PMS_P2;Temp;Humidity;BMP_temperature;BMP_pressure;BME280_temperature;BME280_humidity;BME280_pressure;Samples;Min_cycle;Max_cycle;Signal;HPM_P1;HPM_P2
2022/08/08 00:02:07;;;;;;;3.05;2.75;;;24.70;56.20;;;;;;5012490;28;20758;-66
2022/08/08 00:04:48;;;;;;;3.15;2.85;;;24.70;56.30;;;;;;5012047;28;20389;-65
2022/08/08 00:07:32;;;;;;;3.17;2.90;;;24.70;56.30;;;;;;5012082;28;20401;-66
2022/08/08 00:10:09;;;;;;;2.67;2.47;;;24.70;56.30;;;;;;5011325;28;21184;-66
2022/08/08 00:12:45;;;;;;;3.22;2.92;;;24.70;56.40;;;;;;5012026;28;20758;-65
2022/08/08 00:15:26;;;;;;;2.78;2.58;;;24.70;56.40;;;;;;5010216;28;20412;-66
2022/08/08 00:18:04;;;;;;;2.85;2.63;;;24.70;56.50;;;;;;5011714;28;20381;-66
2022/08/08 00:20:34;;;;;;;2.92;2.63;;;24.70;56.50;;;;;;4994070;28;20403;-65
2022/08/08 00:23:06;;;;;;;2.95;2.70;;;24.70;56.50;;;;;;5011228;28;20393;-65
2022/08/08 00:25:41;;;;;;;2.90;2.60;;;24.70;57.10;;;;;;5011693;28;20388;-66
2022/08/08 00:28:11;;;;;;;3.20;2.60;;;24.70;56.60;;;;;;5011953;28;20388;-66
2022/08/08 00:30:41;;;;;;;2.92;2.63;;;24.70;56.60;;;;;;5011734;28;20450;-66
2022/08/08 00:33:17;;;;;;;2.85;2.55;;;24.70;56.70;;;;;;5011256;28;20388;-66
2022/08/08 00:36:19;;;;;;;3.15;2.88;;;24.70;56.70;;;;;;5011580;28;20440;-65
2022/08/08 00:39:03;;;;;;;2.97;2.78;;;24.70;56.70;;;;;;5011239;28;20757;-65
2022/08/08 00:41:46;;;;;;;3.15;2.85;;;24.60;56.70;;;;;;5011080;28;20424;-67
2022/08/08 00:44:21;;;;;;;3.07;2.77;;;24.60;56.70;;;;;;5011204;28;20393;-66
2022/08/08 00:47:01;;;;;;;3.28;2.97;;;24.60;56.60;;;;;;5011948;28;20397;-67
2022/08/08 00:49:46;;;;;;;2.88;2.67;;;24.60;56.60;;;;;;5015284;28;20807;-65
2022/08/08 00:52:47;;;;;;;3.13;2.83;;;24.60;56.70;;;;;;5016443;28;20381;-66
2022/08/08 00:55:32;;;;;;;3.22;2.80;;;24.70;57.30;;;;;;4935926;29;20434;-66
2022/08/08 00:58:25;;;;;;;5.28;4.13;;;24.70;57.60;;;;;;5009454;28;20404;-66
2022/08/08 01:01:16;;;;;;;5.32;3.03;;;24.70;60.50;;;;;;4998495;28;20428;-67
2022/08/08 01:04:09;;;;;;;4.38;3.22;;;24.80;59.70;;;;;;5016038;28;20389;-66
2022/08/08 01:06:58;;;;;;;5.28;3.53;;;24.80;59.40;;;;;;4998875;28;20397;-67
2022/08/08 01:09:28;;;;;;;4.32;3.10;;;24.80;59.50;;;;;;5016444;28;20594;-67
2022/08/08 01:12:03;;;;;;;4.15;3.20;;;24.80;59.70;;;;;;5014927;28;20472;-66
2022/08/08 01:14:43;;;;;;;6.00;3.28;;;24.80;59.80;;;;;;4996650;28;20458;-67
2022/08/08 01:17:18;;;;;;;6.70;3.57;;;24.80;60.00;;;;;;5013572;28;20482;-66
2022/08/08 01:20:22;;;;;;;6.28;3.65;;;24.80;59.70;;;;;;5014009;28;20395;-66
2022/08/08 01:23:15;;;;;;;3.35;3.05;;;24.80;59.20;;;;;;4995945;28;20440;-66
2022/08/08 01:26:11;;;;;;;3.40;3.10;;;24.70;58.70;;;;;;5013844;28;20857;-66
2022/08/08 01:29:09;;;;;;;4.18;3.28;;;24.70;58.50;;;;;;5013917;28;20480;-66
2022/08/08 01:32:15;;;;;;;3.92;3.13;;;24.70;58.30;;;;;;5013708;28;20391;-66
2022/08/08 01:34:41;;;;;;;3.50;3.10;;;24.70;58.10;;;;;;5002926;28;20746;-66
2022/08/08 01:37:09;;;;;;;4.07;3.08;;;24.70;58.00;;;;;;4995615;28;20416;-66
2022/08/08 01:40:23;;;;;;;3.28;2.90;;;24.70;58.00;;;;;;5013808;28;20467;-66
2022/08/08 01:43:26;;;;;;;4.27;2.90;;;24.70;57.90;;;;;;4978005;28;20426;-66
2022/08/08 01:46:27;;;;;;;3.90;2.92;;;24.70;57.80;;;;;;4933864;29;20414;-66
2022/08/08 01:49:26;;;;;;;3.50;3.20;;;24.70;57.80;;;;;;5012948;28;20440;-66
2022/08/08 01:51:57;;;;;;;4.43;3.07;;;24.60;57.70;;;;;;5013351;28;20381;-66
2022/08/08 01:54:39;;;;;;;3.72;2.90;;;24.60;57.70;;;;;;5013529;28;20401;-66
2022/08/08 01:57:15;;;;;;;4.30;3.10;;;24.60;57.60;;;;;;5012888;28;20463;-66
2022/08/08 02:00:10;;;;;;;3.97;3.00;;;24.60;57.60;;;;;;4994264;28;20448;-66
2022/08/08 02:02:50;;;;;;;3.73;3.07;;;24.60;57.60;;;;;;5013234;28;20543;-66
2022/08/08 02:05:32;;;;;;;3.55;2.88;;;24.60;57.60;;;;;;4995556;28;20761;-66
2022/08/08 02:08:20;;;;;;;3.33;3.03;;;24.60;57.60;;;;;;5013266;28;20482;-66
2022/08/08 02:11:04;;;;;;;3.20;2.88;;;24.60;57.60;;;;;;5013154;28;20500;-66
2022/08/08 02:13:49;;;;;;;3.80;3.17;;;24.60;57.60;;;;;;4995382;28;20440;-66
2022/08/08 02:16:35;;;;;;;3.58;2.85;;;24.60;57.50;;;;;;5012998;28;20496;-66
2022/08/08 02:19:38;;;;;;;3.83;2.75;;;24.60;57.60;;;;;;5012633;28;20394;-66
2022/08/08 02:25:04;;;;;;;3.50;3.10;;;24.60;57.50;;;;;;5012955;28;20391;-66
2022/08/08 02:27:37;;;;;;;3.28;2.88;;;24.60;57.60;;;;;;5012875;28;20432;-66
2022/08/08 02:30:10;;;;;;;3.33;3.00;;;24.60;57.50;;;;;;5012704;28;20380;-66
2022/08/08 02:32:42;;;;;;;3.70;2.95;;;24.60;57.60;;;;;;5012832;28;20401;-66
2022/08/08 02:35:52;;;;;;;3.80;3.10;;;24.50;57.50;;;;;;4994632;28;20450;-66
2022/08/08 02:38:51;;;;;;;3.70;3.10;;;24.50;57.50;;;;;;5008056;28;20806;-66
2022/08/08 02:41:45;;;;;;;3.35;3.05;;;24.50;57.50;;;;;;4991615;28;20525;-66
2022/08/08 02:44:32;;;;;;;3.33;3.00;;;24.50;57.50;;;;;;4992730;28;20394;-66
2022/08/08 02:47:12;;;;;;;3.05;2.78;;;24.50;57.50;;;;;;4991163;28;20497;-66
2022/08/08 02:49:41;;;;;;;3.10;2.80;;;24.50;57.50;;;;;;4992984;28;20772;-66
2022/08/08 02:52:21;;;;;;;3.03;2.72;;;24.50;57.50;;;;;;4991556;28;20444;-66
2022/08/08 02:55:10;;;;;;;3.63;2.88;;;24.50;57.50;;;;;;4991379;28;20476;-66
2022/08/08 02:57:48;;;;;;;3.20;2.70;;;24.50;57.50;;;;;;4991108;28;20483;-67
2022/08/08 03:00:22;;;;;;;3.30;3.00;;;24.50;57.50;;;;;;4991439;28;20953;-66
2022/08/08 03:02:59;;;;;;;3.42;3.13;;;24.50;57.50;;;;;;4992665;28;20473;-66
2022/08/08 03:05:34;;;;;;;3.30;3.00;;;24.50;57.50;;;;;;4992532;28;20398;-66
2022/08/08 03:08:03;;;;;;;3.78;2.97;;;24.50;57.60;;;;;;4991101;28;20771;-66
2022/08/08 03:11:13;;;;;;;5.07;3.15;;;24.50;58.30;;;;;;4992389;28;20437;-66
2022/08/08 03:14:11;;;;;;;6.07;3.43;;;24.50;58.50;;;;;;4986626;28;20394;-66
2022/08/08 03:16:46;;;;;;;5.57;3.65;;;24.50;58.00;;;;;;4987298;28;20426;-66
2022/08/08 03:19:22;;;;;;;5.70;3.78;;;24.50;58.40;;;;;;4991997;28;20402;-66
2022/08/08 03:21:48;;;;;;;6.95;4.00;;;24.50;59.90;;;;;;4992270;28;20437;-67
2022/08/08 03:24:18;;;;;;;7.43;3.80;;;24.60;60.00;;;;;;4991963;28;20394;-66
2022/08/08 03:26:50;;;;;;;8.60;4.03;;;24.60;59.90;;;;;;4990400;28;20942;-67
2022/08/08 03:29:24;;;;;;;6.03;3.60;;;24.60;60.00;;;;;;4991538;28;20402;-67
2022/08/08 03:34:34;;;;;;;6.78;2.95;;;24.70;59.80;;;;;;4991982;28;20389;-67
2022/08/08 03:37:00;;;;;;;5.45;3.42;;;24.70;59.90;;;;;;5000202;28;20519;-66
2022/08/08 03:39:26;;;;;;;5.07;3.42;;;24.70;60.20;;;;;;5011608;28;20420;-67
2022/08/08 03:41:51;;;;;;;5.03;3.80;;;24.70;60.50;;;;;;5011581;28;20419;-67
2022/08/08 03:44:17;;;;;;;11.35;3.15;;;24.70;60.10;;;;;;5011325;28;20381;-69
2022/08/08 03:46:45;;;;;;;8.33;3.37;;;24.70;60.10;;;;;;5011530;28;20496;-67
2022/08/08 03:49:25;;;;;;;5.95;3.50;;;24.70;60.00;;;;;;5011121;28;20431;-66
2022/08/08 03:51:56;;;;;;;6.68;3.30;;;24.80;60.20;;;;;;5011522;28;20393;-67
2022/08/08 03:54:23;;;;;;;6.20;3.28;;;24.80;60.10;;;;;;5011527;28;20407;-66
2022/08/08 03:56:50;;;;;;;6.13;3.28;;;24.80;59.50;;;;;;5011389;28;20496;-67
2022/08/08 03:59:16;;;;;;;8.98;3.35;;;24.70;59.30;;;;;;5010995;28;20396;-67
2022/08/08 04:01:41;;;;;;;6.37;3.10;;;24.70;59.50;;;;;;5004374;28;20405;-66
2022/08/08 04:04:08;;;;;;;9.40;2.92;;;24.70;59.40;;;;;;5000035;28;20398;-67
2022/08/08 04:06:34;;;;;;;8.93;3.58;;;24.70;59.30;;;;;;4992361;28;20395;-67
2022/08/08 04:09:05;;;;;;;10.27;3.40;;;24.70;58.90;;;;;;4991462;28;20390;-67
2022/08/08 04:11:31;;;;;;;5.65;3.50;;;24.70;58.70;;;;;;4991851;28;20375;-67
2022/08/08 04:13:57;;;;;;;10.55;4.00;;;24.60;58.80;;;;;;4991718;28;20404;-67
2022/08/08 04:16:24;;;;;;;7.40;3.70;;;24.60;58.50;;;;;;4991248;28;20426;-67
2022/08/08 04:18:49;;;;;;;7.32;3.97;;;24.60;58.30;;;;;;4991724;28;20386;-66
2022/08/08 04:21:16;;;;;;;8.00;3.80;;;24.50;57.30;;;;;;4991322;28;20900;-67
2022/08/08 04:23:42;;;;;;;8.07;3.90;;;24.50;57.10;;;;;;4995477;28;20751;-66
2022/08/08 04:26:07;;;;;;;6.28;3.78;;;24.50;57.10;;;;;;4995563;28;20397;-67
2022/08/08 04:28:33;;;;;;;7.28;3.78;;;24.40;57.10;;;;;;4995497;28;20936;-67
2022/08/08 04:31:00;;;;;;;7.80;3.58;;;24.40;57.10;;;;;;4995251;28;20383;-67
2022/08/08 04:33:25;;;;;;;5.20;3.40;;;24.40;57.10;;;;;;4995294;28;20397;-66
2022/08/08 04:35:51;;;;;;;7.37;3.77;;;24.50;57.20;;;;;;4993603;28;20423;-67
2022/08/08 04:38:17;;;;;;;8.07;4.23;;;24.40;57.30;;;;;;4994005;28;20944;-67
2022/08/08 04:40:42;;;;;;;6.32;4.13;;;24.40;57.10;;;;;;4977767;28;20403;-67
2022/08/08 04:43:08;;;;;;;7.53;4.30;;;24.40;56.70;;;;;;4994801;28;20885;-67
2022/08/08 04:45:34;;;;;;;8.68;4.28;;;24.30;56.30;;;;;;4995106;28;20398;-66
2022/08/08 04:47:59;;;;;;;5.43;4.38;;;24.30;56.10;;;;;;4993878;28;20449;-67
2022/08/08 04:50:26;;;;;;;8.70;4.53;;;24.30;56.00;;;;;;4995189;28;20417;-67
2022/08/08 04:52:52;;;;;;;6.22;5.10;;;24.30;55.80;;;;;;4995062;28;20469;-67
2022/08/08 04:55:18;;;;;;;5.70;4.50;;;24.30;55.80;;;;;;4994543;28;20783;-68
2022/08/08 04:57:44;;;;;;;6.68;5.35;;;24.20;55.90;;;;;;4994877;28;20861;-67
2022/08/08 05:00:11;;;;;;;5.60;4.85;;;24.20;55.90;;;;;;4977604;28;20395;-67
2022/08/08 05:02:37;;;;;;;7.40;4.72;;;24.20;56.00;;;;;;4994390;28;20898;-68
2022/08/08 05:05:03;;;;;;;6.43;5.20;;;24.20;56.00;;;;;;4994359;28;20399;-67
2022/08/08 05:07:29;;;;;;;6.18;5.30;;;24.20;56.00;;;;;;4994923;28;20394;-67
2022/08/08 05:09:55;;;;;;;5.88;5.25;;;24.20;56.00;;;;;;4994689;28;20547;-67
2022/08/08 05:12:20;;;;;;;6.37;5.50;;;24.20;55.90;;;;;;4994765;28;20489;-67
2022/08/08 05:14:46;;;;;;;5.50;5.00;;;24.10;55.90;;;;;;4994601;28;20395;-67
2022/08/08 05:17:12;;;;;;;5.97;5.13;;;24.10;55.90;;;;;;4994225;28;20399;-67
2022/08/08 05:19:37;;;;;;;6.13;5.32;;;24.10;56.00;;;;;;4994645;28;20439;-67
2022/08/08 05:22:05;;;;;;;6.05;5.05;;;24.00;56.10;;;;;;4994532;28;20398;-67
2022/08/08 05:24:31;;;;;;;6.43;5.20;;;24.10;56.20;;;;;;4994422;28;20810;-67
2022/08/08 05:26:57;;;;;;;5.78;5.18;;;24.00;56.40;;;;;;4994657;28;20875;-67
2022/08/08 05:29:22;;;;;;;6.90;5.35;;;24.00;56.50;;;;;;4993933;28;20430;-67
2022/08/08 05:31:48;;;;;;;7.50;5.53;;;24.00;56.70;;;;;;4994255;28;20902;-67
2022/08/08 05:34:43;;;;;;;8.53;5.73;;;24.00;57.10;;;;;;4993154;28;20418;-67
2022/08/08 05:37:11;;;;;;;7.05;5.60;;;24.00;57.00;;;;;;4985978;28;20414;-67
2022/08/08 05:39:38;;;;;;;6.47;5.30;;;24.00;57.00;;;;;;4994138;28;20448;-67
2022/08/08 05:42:04;;;;;;;5.50;5.00;;;24.00;57.10;;;;;;4994193;28;20390;-67
2022/08/08 05:44:32;;;;;;;6.70;5.38;;;24.00;57.00;;;;;;4994236;28;20386;-67
2022/08/08 05:46:59;;;;;;;6.43;5.28;;;23.90;57.00;;;;;;4994036;28;20386;-67
2022/08/08 05:49:24;;;;;;;7.23;5.40;;;23.90;57.00;;;;;;4993961;28;21139;-67
2022/08/08 05:51:50;;;;;;;6.35;4.90;;;23.90;57.10;;;;;;4976484;28;20410;-67
2022/08/08 05:54:17;;;;;;;9.50;5.63;;;23.90;57.20;;;;;;4994085;28;20583;-67
2022/08/08 05:56:44;;;;;;;8.55;5.70;;;23.90;57.40;;;;;;4993742;28;20425;-66
2022/08/08 05:59:17;;;;;;;8.88;5.40;;;23.90;57.40;;;;;;4993419;28;20469;-66
2022/08/08 06:01:53;;;;;;;7.63;5.10;;;23.90;57.20;;;;;;4976154;28;20399;-67
2022/08/08 06:04:24;;;;;;;8.73;4.90;;;23.90;57.30;;;;;;4993860;28;20842;-66
2022/08/08 06:06:52;;;;;;;7.03;4.50;;;23.90;57.60;;;;;;4993817;28;20394;-66
2022/08/08 06:09:24;;;;;;;7.03;4.80;;;23.90;57.50;;;;;;4991967;28;20398;-67
2022/08/08 06:11:50;;;;;;;8.55;4.90;;;23.90;57.40;;;;;;4993606;28;20435;-67
2022/08/08 06:14:16;;;;;;;7.57;4.30;;;23.90;57.50;;;;;;4993344;28;20410;-67
2022/08/08 06:16:43;;;;;;;5.50;4.32;;;23.90;57.60;;;;;;4991957;28;20422;-67
2022/08/08 06:19:10;;;;;;;5.88;4.47;;;23.90;57.40;;;;;;4991819;28;20394;-67
2022/08/08 06:21:36;;;;;;;7.38;4.30;;;23.90;57.50;;;;;;4993357;28;20913;-66
2022/08/08 06:24:05;;;;;;;6.33;4.33;;;23.90;57.30;;;;;;4993433;28;20407;-66
2022/08/08 06:26:38;;;;;;;5.70;4.15;;;23.90;57.50;;;;;;4993367;28;20417;-67
2022/08/08 06:29:08;;;;;;;6.72;4.07;;;23.90;57.50;;;;;;4993189;28;20395;-67
2022/08/08 06:31:36;;;;;;;5.37;3.90;;;23.90;57.40;;;;;;4993325;28;20404;-67
2022/08/08 06:34:13;;;;;;;5.25;4.40;;;23.90;57.50;;;;;;4993225;28;20394;-67
2022/08/08 06:36:41;;;;;;;6.78;4.22;;;23.90;57.50;;;;;;4992603;28;20430;-66
2022/08/08 06:39:11;;;;;;;6.40;4.40;;;23.90;57.40;;;;;;4991593;28;20398;-66
2022/08/08 06:41:57;;;;;;;5.90;4.47;;;23.90;57.50;;;;;;4993012;28;20390;-66
2022/08/08 06:44:24;;;;;;;5.03;4.03;;;23.90;57.40;;;;;;4992707;28;20434;-67
2022/08/08 06:46:51;;;;;;;5.68;4.40;;;24.00;57.50;;;;;;4992923;28;20457;-66
2022/08/08 06:49:17;;;;;;;4.68;4.20;;;23.90;57.60;;;;;;4975072;28;20394;-67
2022/08/08 06:51:43;;;;;;;4.72;3.90;;;23.90;57.50;;;;;;4975399;28;20486;-66
2022/08/08 06:54:09;;;;;;;4.30;3.90;;;23.90;57.50;;;;;;4992862;28;20410;-67
2022/08/08 06:56:35;;;;;;;4.72;4.20;;;23.90;57.50;;;;;;4992617;28;20446;-66
2022/08/08 06:59:03;;;;;;;4.25;3.72;;;23.90;57.50;;;;;;4992754;28;20410;-67
2022/08/08 07:01:33;;;;;;;5.30;3.90;;;23.90;57.40;;;;;;4992512;28;20474;-66
2022/08/08 07:04:14;;;;;;;4.53;4.10;;;23.90;57.40;;;;;;5006424;28;20480;-69
2022/08/08 07:06:45;;;;;;;4.50;4.10;;;23.90;57.50;;;;;;5012201;28;20397;-67
2022/08/08 07:09:24;;;;;;;4.35;3.90;;;24.00;57.50;;;;;;5011700;28;20393;-67
2022/08/08 07:11:51;;;;;;;4.22;3.83;;;24.00;57.50;;;;;;5012136;28;20393;-68
2022/08/08 07:14:25;;;;;;;3.80;3.50;;;24.00;57.50;;;;;;5012054;28;20412;-67
2022/08/08 07:17:05;;;;;;;4.10;3.60;;;24.00;57.50;;;;;;4995512;28;20428;-67
2022/08/08 07:19:37;;;;;;;4.25;3.85;;;24.00;57.50;;;;;;5011850;28;20391;-68
2022/08/08 07:22:05;;;;;;;4.40;4.00;;;24.00;57.40;;;;;;5011872;28;20935;-68
2022/08/08 07:24:41;;;;;;;4.50;4.10;;;24.00;57.40;;;;;;5011986;28;20443;-67
2022/08/08 07:27:11;;;;;;;4.70;4.20;;;24.00;57.50;;;;;;5011727;28;20412;-67
2022/08/08 07:29:37;;;;;;;4.20;3.80;;;24.00;57.40;;;;;;5011821;28;20880;-67
2022/08/08 07:32:04;;;;;;;4.45;4.05;;;24.00;57.40;;;;;;5011835;28;20757;-66
2022/08/08 07:34:32;;;;;;;4.40;4.00;;;24.00;57.50;;;;;;5011706;28;20943;-67
2022/08/08 07:37:00;;;;;;;5.00;4.22;;;24.00;57.60;;;;;;5011459;28;20483;-67
2022/08/08 07:39:29;;;;;;;4.57;4.18;;;24.00;57.50;;;;;;5011083;28;20428;-67
2022/08/08 07:41:56;;;;;;;4.50;4.10;;;24.00;57.80;;;;;;5011656;28;20472;-68
2022/08/08 07:44:23;;;;;;;5.83;3.90;;;24.00;57.80;;;;;;5011072;28;20404;-67
2022/08/08 07:46:49;;;;;;;5.20;4.30;;;24.00;58.00;;;;;;4989177;28;20404;-67
2022/08/08 07:49:15;;;;;;;5.13;4.37;;;23.90;58.00;;;;;;5004196;28;20437;-68
2022/08/08 07:51:41;;;;;;;5.53;4.30;;;23.90;58.20;;;;;;4998838;28;20405;-68
2022/08/08 07:54:23;;;;;;;7.07;4.50;;;23.90;58.20;;;;;;4981878;28;20836;-67
2022/08/08 07:57:11;;;;;;;5.23;4.30;;;24.00;58.30;;;;;;5002119;28;20527;-67
2022/08/08 08:00:03;;;;;;;5.78;4.43;;;24.00;58.30;;;;;;5005491;28;20385;-67
2022/08/08 08:02:46;;;;;;;5.10;4.30;;;24.00;58.30;;;;;;5005509;28;20943;-69
2022/08/08 08:05:19;;;;;;;5.10;4.22;;;24.00;58.40;;;;;;5003710;28;20405;-66
2022/08/08 08:08:02;;;;;;;5.87;4.57;;;24.00;58.40;;;;;;4987847;28;20392;-67
2022/08/08 08:10:29;;;;;;;4.93;4.20;;;24.00;58.40;;;;;;5005218;28;20802;-67
2022/08/08 08:13:19;;;;;;;5.85;4.38;;;24.00;58.50;;;;;;5002730;28;20398;-67
2022/08/08 08:15:47;;;;;;;4.78;4.32;;;24.00;58.50;;;;;;5005608;28;20826;-67
2022/08/08 08:18:14;;;;;;;6.05;4.38;;;24.00;58.50;;;;;;5004498;28;20942;-67
2022/08/08 08:20:40;;;;;;;4.95;4.55;;;24.00;58.50;;;;;;5005086;28;20410;-67
2022/08/08 08:23:06;;;;;;;5.30;4.53;;;24.00;58.50;;;;;;4985802;28;20401;-66
2022/08/08 08:25:32;;;;;;;4.80;4.30;;;24.00;58.60;;;;;;5003789;28;20389;-67
2022/08/08 08:27:57;;;;;;;5.32;4.22;;;24.00;58.60;;;;;;5004752;28;20409;-67
2022/08/08 08:30:25;;;;;;;5.00;4.50;;;24.00;58.60;;;;;;5002973;28;20410;-66
2022/08/08 08:32:50;;;;;;;4.85;4.35;;;24.00;58.60;;;;;;5004127;28;20388;-66
2022/08/08 08:35:16;;;;;;;4.70;4.30;;;24.00;58.70;;;;;;5003873;28;20917;-66
2022/08/08 08:37:42;;;;;;;4.90;4.47;;;24.00;58.60;;;;;;5002652;28;20422;-66
2022/08/08 08:40:08;;;;;;;4.80;4.30;;;24.00;58.70;;;;;;5003143;28;20803;-67
2022/08/08 08:42:35;;;;;;;4.90;4.50;;;24.00;58.70;;;;;;5003577;28;20737;-69
2022/08/08 08:45:02;;;;;;;4.88;4.45;;;24.00;58.70;;;;;;5004701;28;20392;-68
2022/08/08 08:47:29;;;;;;;5.35;4.65;;;24.00;58.70;;;;;;4985204;28;21091;-67
2022/08/08 08:49:55;;;;;;;5.15;4.43;;;24.00;58.70;;;;;;5003611;28;20397;-67
2022/08/08 08:52:21;;;;;;;4.60;4.20;;;24.00;58.70;;;;;;5004338;28;20447;-67
2022/08/08 08:54:47;;;;;;;5.00;4.50;;;24.00;58.70;;;;;;5002813;28;20445;-67
2022/08/08 08:57:14;;;;;;;4.93;4.50;;;24.00;58.70;;;;;;5003323;28;20405;-66
2022/08/08 08:59:42;;;;;;;4.90;4.50;;;24.00;58.70;;;;;;5004423;28;20399;-68
2022/08/08 09:02:19;;;;;;;4.47;4.07;;;24.00;58.70;;;;;;5004508;28;20487;-67
2022/08/08 09:04:47;;;;;;;4.77;4.37;;;24.00;58.80;;;;;;5004461;28;20472;-68
2022/08/08 09:07:18;;;;;;;5.05;4.65;;;24.00;58.80;;;;;;4984916;28;20933;-67
2022/08/08 09:09:49;;;;;;;4.95;4.47;;;24.00;58.80;;;;;;5000657;28;20474;-68
2022/08/08 09:12:17;;;;;;;4.72;4.32;;;24.00;58.80;;;;;;4985510;28;20401;-66
2022/08/08 09:14:43;;;;;;;5.00;4.50;;;24.00;58.80;;;;;;5003711;28;20451;-67
2022/08/08 09:17:09;;;;;;;4.93;4.50;;;24.00;58.80;;;;;;5002566;28;20482;-66
2022/08/08 09:19:36;;;;;;;4.80;4.40;;;24.00;58.80;;;;;;5002781;28;20389;-66
2022/08/08 09:22:04;;;;;;;4.90;4.50;;;24.00;58.80;;;;;;5003979;28;20436;-67
2022/08/08 09:24:32;;;;;;;5.17;4.67;;;24.00;58.90;;;;;;5001330;28;20407;-66
2022/08/08 09:27:07;;;;;;;5.18;4.68;;;24.00;58.90;;;;;;5002402;28;20454;-67
2022/08/08 09:29:51;;;;;;;4.90;4.50;;;24.00;58.90;;;;;;5002175;28;20479;-67
2022/08/08 09:32:38;;;;;;;5.10;4.70;;;24.00;58.90;;;;;;5003952;28;20393;-67
2022/08/08 09:35:09;;;;;;;5.00;4.50;;;24.00;58.90;;;;;;5004008;28;20414;-67
2022/08/08 09:37:45;;;;;;;5.28;4.78;;;24.00;58.80;;;;;;4984528;28;20413;-67
2022/08/08 09:40:23;;;;;;;4.70;4.30;;;24.00;58.90;;;;;;5002355;28;20829;-66
2022/08/08 09:42:59;;;;;;;5.50;5.00;;;24.00;58.90;;;;;;5003980;28;20413;-66
2022/08/08 09:45:39;;;;;;;5.10;4.70;;;24.00;58.90;;;;;;5003234;28;20396;-66
2022/08/08 09:48:06;;;;;;;5.18;4.68;;;24.00;58.90;;;;;;5003532;28;20393;-67
2022/08/08 09:50:33;;;;;;;4.97;4.57;;;24.10;59.00;;;;;;5000920;28;20747;-67
2022/08/08 09:53:02;;;;;;;5.13;4.70;;;24.00;58.90;;;;;;5003010;28;20395;-67
2022/08/08 09:55:30;;;;;;;4.93;4.53;;;24.10;59.00;;;;;;5001196;28;20418;-67
2022/08/08 09:58:07;;;;;;;5.25;4.75;;;24.00;58.90;;;;;;5002032;28;20486;-66
2022/08/08 10:00:37;;;;;;;5.18;4.70;;;24.00;58.90;;;;;;5003353;28;20983;-67
2022/08/08 10:03:04;;;;;;;5.57;5.10;;;24.10;59.00;;;;;;5003268;28;20393;-67
2022/08/08 10:05:35;;;;;;;5.00;4.60;;;24.00;59.00;;;;;;5001463;28;20418;-68
2022/08/08 10:08:03;;;;;;;4.95;4.55;;;24.00;58.90;;;;;;4983603;28;20937;-67
2022/08/08 10:10:36;;;;;;;4.95;4.55;;;24.00;58.90;;;;;;5002916;28;20404;-67
2022/08/08 10:13:23;;;;;;;4.88;4.47;;;24.10;59.00;;;;;;4985604;28;20393;-67
2022/08/08 10:15:51;;;;;;;5.05;4.60;;;24.10;58.80;;;;;;5002999;28;20457;-67
2022/08/08 10:18:32;;;;;;;5.32;4.82;;;24.10;58.90;;;;;;5002620;28;20445;-67
2022/08/08 10:21:08;;;;;;;4.87;4.47;;;24.10;58.80;;;;;;4984474;28;21222;-66
2022/08/08 10:23:33;;;;;;;4.90;4.50;;;24.10;58.80;;;;;;5002058;28;20408;-67
2022/08/08 10:26:01;;;;;;;4.60;4.20;;;24.10;58.70;;;;;;5002330;28;20418;-67
2022/08/08 10:28:30;;;;;;;4.50;4.18;;;24.10;58.60;;;;;;5002946;28;20389;-67
2022/08/08 10:32:30;;;;;;;4.63;4.22;;;24.10;58.40;;;;;;5002245;28;20477;-67
2022/08/08 10:33:50;;;;;;;4.70;4.30;;;24.10;58.50;;;;;;5002777;28;20520;-67
2022/08/08 10:36:22;;;;;;;4.93;4.53;;;24.20;58.50;;;;;;5003960;28;20515;-68
2022/08/08 10:38:50;;;;;;;4.88;4.47;;;24.20;58.60;;;;;;5001083;28;20794;-67
2022/08/08 10:41:17;;;;;;;5.00;4.60;;;24.20;58.50;;;;;;5003514;28;20443;-67
2022/08/08 10:43:42;;;;;;;5.00;4.60;;;24.10;58.50;;;;;;5002243;28;20384;-67
2022/08/08 10:46:24;;;;;;;4.80;4.40;;;24.20;58.40;;;;;;4998680;28;20428;-69
2022/08/08 10:48:54;;;;;;;4.50;4.10;;;24.20;58.50;;;;;;5002285;28;20411;-67
2022/08/08 10:51:27;;;;;;;4.63;4.23;;;24.20;58.50;;;;;;4999357;28;20401;-66
2022/08/08 10:53:54;;;;;;;4.80;4.40;;;24.20;58.40;;;;;;5003990;28;20419;-64
2022/08/08 10:56:23;;;;;;;4.53;4.13;;;24.20;58.40;;;;;;5000324;28;20427;-64
2022/08/08 10:58:59;;;;;;;4.80;4.40;;;24.20;58.50;;;;;;5002242;28;21002;-65
2022/08/08 11:01:29;;;;;;;4.30;4.00;;;24.20;58.40;;;;;;5001790;28;20420;-65
2022/08/08 11:03:58;;;;;;;4.80;4.40;;;24.20;58.40;;;;;;5001538;28;20390;-68
2022/08/08 11:06:35;;;;;;;4.38;4.00;;;24.20;58.30;;;;;;5000066;28;20445;-68
2022/08/08 11:09:06;;;;;;;4.57;4.28;;;24.20;58.10;;;;;;5000077;28;20389;-67
2022/08/08 11:11:39;;;;;;;4.43;4.03;;;24.20;58.40;;;;;;5001632;28;20400;-67
2022/08/08 11:14:06;;;;;;;4.60;4.30;;;24.30;58.40;;;;;;5002532;28;20398;-67
2022/08/08 11:16:34;;;;;;;3.85;3.55;;;24.20;58.40;;;;;;5001092;28;20976;-68
2022/08/08 11:19:01;;;;;;;4.40;4.00;;;24.20;58.40;;;;;;5001705;28;20394;-67
2022/08/08 11:21:29;;;;;;;4.38;4.07;;;24.30;58.20;;;;;;5001465;28;20806;-67
2022/08/08 11:23:58;;;;;;;4.10;3.80;;;24.30;58.50;;;;;;5001186;28;20397;-67
2022/08/08 11:26:27;;;;;;;4.37;3.97;;;24.30;58.20;;;;;;4999693;28;20536;-67
2022/08/08 11:28:59;;;;;;;4.50;4.10;;;24.30;57.90;;;;;;5000822;28;20464;-66
2022/08/08 11:31:26;;;;;;;4.00;3.60;;;24.30;58.20;;;;;;5001287;28;20951;-67
2022/08/08 11:33:54;;;;;;;4.13;3.83;;;24.30;58.10;;;;;;5000390;28;20394;-67
2022/08/08 11:36:21;;;;;;;4.32;4.03;;;24.30;58.20;;;;;;4999340;28;20924;-67
2022/08/08 11:38:47;;;;;;;4.40;4.10;;;24.30;58.00;;;;;;5001342;28;20388;-67
2022/08/08 11:41:16;;;;;;;4.27;3.97;;;24.30;57.90;;;;;;4998690;28;20404;-67
2022/08/08 11:43:43;;;;;;;4.18;3.85;;;24.30;58.10;;;;;;5000973;28;20393;-66
2022/08/08 11:46:10;;;;;;;3.67;3.38;;;24.30;58.60;;;;;;4983889;28;20406;-66
2022/08/08 11:48:37;;;;;;;4.00;3.70;;;24.30;57.90;;;;;;5000298;28;20381;-68
2022/08/08 11:51:03;;;;;;;4.07;3.78;;;24.30;58.00;;;;;;5001294;28;20447;-68
2022/08/08 11:53:30;;;;;;;3.97;3.67;;;24.30;57.90;;;;;;4999304;28;20385;-67
2022/08/08 11:55:55;;;;;;;3.50;3.20;;;24.30;57.80;;;;;;5000175;28;20431;-67
2022/08/08 11:58:31;;;;;;;3.80;3.50;;;24.30;57.70;;;;;;5001513;28;20388;-68
2022/08/08 12:00:57;;;;;;;3.80;3.50;;;24.40;57.90;;;;;;5001545;28;20397;-67
2022/08/08 12:03:26;;;;;;;3.88;3.58;;;24.40;57.80;;;;;;5001222;28;20381;-67
2022/08/08 12:05:53;;;;;;;3.95;3.55;;;24.40;57.70;;;;;;5000086;28;20395;-69
2022/08/08 12:08:36;;;;;;;3.75;3.45;;;24.40;57.90;;;;;;4999559;28;20398;-68
2022/08/08 12:11:08;;;;;;;3.50;3.20;;;24.40;57.70;;;;;;5001336;28;20409;-69
2022/08/08 12:13:34;;;;;;;3.50;3.30;;;24.40;57.50;;;;;;4999764;28;20885;-67
2022/08/08 12:16:12;;;;;;;3.90;3.60;;;24.40;57.60;;;;;;5001047;28;20509;-70
2022/08/08 12:18:50;;;;;;;3.88;3.20;;;24.40;57.80;;;;;;5001395;28;20396;-68
2022/08/08 12:21:26;;;;;;;3.90;3.60;;;24.40;57.60;;;;;;5001407;28;20391;-67
2022/08/08 12:24:08;;;;;;;3.47;3.17;;;24.40;57.60;;;;;;5001233;28;20392;-68
2022/08/08 12:26:43;;;;;;;3.40;3.10;;;24.40;57.50;;;;;;5001221;28;20396;-68
2022/08/08 12:29:31;;;;;;;3.63;3.33;;;24.40;57.50;;;;;;5002439;28;20814;-66
2022/08/08 12:32:16;;;;;;;3.70;3.40;;;24.40;57.70;;;;;;5000062;28;20405;-67
2022/08/08 12:34:49;;;;;;;3.40;3.20;;;24.50;57.60;;;;;;5001179;28;20411;-67
2022/08/08 12:37:21;;;;;;;3.65;3.35;;;24.50;57.50;;;;;;4982334;28;20428;-68
2022/08/08 12:39:47;;;;;;;3.50;3.20;;;24.50;57.60;;;;;;5001481;28;20746;-66
2022/08/08 12:42:13;;;;;;;3.42;3.13;;;24.50;57.50;;;;;;5001866;28;20405;-66
2022/08/08 12:44:41;;;;;;;3.80;3.50;;;24.50;57.50;;;;;;5003046;28;20380;-66
2022/08/08 12:47:07;;;;;;;3.75;3.45;;;24.50;57.40;;;;;;5004773;28;20404;-66
2022/08/08 12:49:35;;;;;;;3.60;3.30;;;24.50;58.00;;;;;;5003198;28;20382;-68
2022/08/08 12:52:02;;;;;;;3.47;3.17;;;24.50;57.60;;;;;;5002689;28;20389;-66
2022/08/08 12:54:31;;;;;;;3.60;3.30;;;24.50;57.50;;;;;;5003793;28;20388;-67
2022/08/08 12:56:57;;;;;;;3.85;3.55;;;24.50;57.50;;;;;;5003564;28;20430;-69
2022/08/08 12:59:28;;;;;;;3.58;3.30;;;24.50;57.40;;;;;;5002292;28;20788;-66
2022/08/08 13:01:59;;;;;;;3.40;3.17;;;24.50;57.50;;;;;;5002555;28;20755;-67
2022/08/08 13:04:33;;;;;;;3.38;3.17;;;24.60;57.50;;;;;;5002365;28;20386;-66
2022/08/08 13:07:04;;;;;;;3.40;3.10;;;24.60;57.40;;;;;;5002852;28;20397;-67
2022/08/08 13:09:40;;;;;;;3.70;3.40;;;24.60;57.40;;;;;;5003882;28;20848;-68
2022/08/08 13:12:23;;;;;;;3.33;3.10;;;24.60;57.30;;;;;;5004243;28;20478;-67
2022/08/08 13:14:50;;;;;;;3.60;3.30;;;24.60;57.40;;;;;;5005305;28;20908;-66
2022/08/08 13:17:24;;;;;;;3.50;3.20;;;24.60;57.30;;;;;;5014170;28;20964;-66
2022/08/08 13:19:50;;;;;;;3.13;2.92;;;24.60;57.40;;;;;;5014173;28;20476;-67
2022/08/08 13:22:16;;;;;;;3.40;3.10;;;24.60;57.30;;;;;;5013935;28;20392;-66